Time;durP1;ratioP1;P1;durP2;ratioP2;P2;SDS_P1;SDS_P2;PMS_P1;PMS_P2;Temp;Humidity;BMP_temperature;BMP_pressure;BME280_temperature;BME280_humidity;BME280_pressure;Samples;Min_cycle;Max_cycle;Signal;HPM_P1;HPM_P2
2021/11/02 00:01:59;;;;;;;0.30;0.20;;;;;;;5.71;100.00;98832.53;5031822;28;20846;-49
2021/11/02 00:04:25;;;;;;;0.30;0.20;;;;;;;5.81;100.00;98831.31;5031835;28;20506;-50
2021/11/02 00:06:52;;;;;;;0.30;0.20;;;;;;;5.98;100.00;98821.09;5031469;28;20467;-50
2021/11/02 00:09:21;;;;;;;5.00;1.40;;;;;;;5.82;100.00;98831.25;5034428;28;20448;-50
2021/11/02 00:11:49;;;;;;;0.30;0.20;;;;;;;5.75;100.00;98839.41;5021848;28;20455;-50
2021/11/02 00:14:15;;;;;;;0.30;0.20;;;;;;;5.87;100.00;98828.47;5035584;28;20451;-50
2021/11/02 00:16:44;;;;;;;0.30;0.20;;;;;;;5.75;100.00;98829.72;5031701;28;20476;-50
2021/11/02 00:19:10;;;;;;;0.30;0.30;;;;;;;6.17;100.00;98831.91;5035274;28;20800;-50
2021/11/02 00:21:43;;;;;;;0.30;0.20;;;;;;;6.12;100.00;98820.63;5035354;28;20537;-50
2021/11/02 00:24:15;;;;;;;0.30;0.20;;;;;;;5.96;100.00;98828.22;5026877;28;20448;-50
2021/11/02 00:26:43;;;;;;;0.30;0.20;;;;;;;5.86;100.00;98826.75;5011058;28;20991;-50
2021/11/02 00:29:09;;;;;;;0.30;0.20;;;;;;;5.84;100.00;98829.44;5035144;28;20517;-50
2021/11/02 00:31:36;;;;;;;1.13;1.13;;;;;;;6.02;100.00;98814.78;5035319;28;20443;-50
2021/11/02 00:34:03;;;;;;;0.30;0.20;;;;;;;6.16;100.00;98814.31;5034957;28;20547;-50
2021/11/02 00:36:29;;;;;;;0.30;0.20;;;;;;;6.05;100.00;98814.72;5034774;28;20565;-50
2021/11/02 00:38:56;;;;;;;0.30;0.30;;;;;;;6.21;100.00;98826.47;5034546;28;20455;-50
2021/11/02 00:41:23;;;;;;;0.30;0.20;;;;;;;6.44;100.00;98814.22;5034566;28;21062;-50
2021/11/02 00:43:51;;;;;;;0.30;0.20;;;;;;;6.23;100.00;98807.94;5034953;28;20448;-50
2021/11/02 00:46:24;;;;;;;2.73;2.63;;;;;;;6.11;100.00;98813.63;5034781;28;20471;-50
2021/11/02 00:48:51;;;;;;;0.30;0.20;;;;;;;6.23;100.00;98813.22;5034647;28;20530;-50
2021/11/02 00:51:17;;;;;;;0.30;0.20;;;;;;;6.34;100.00;98815.47;5034541;28;20443;-50
2021/11/02 00:53:44;;;;;;;8.07;3.33;;;;;;;6.22;100.00;98806.22;5033082;28;20551;-50
2021/11/02 00:56:11;;;;;;;0.50;0.50;;;;;;;6.03;100.00;98803.38;5034686;28;20468;-50
2021/11/02 00:58:41;;;;;;;0.30;0.20;;;;;;;6.06;100.00;98808.53;5034353;28;20486;-51
2021/11/02 01:01:08;;;;;;;0.30;0.20;;;;;;;5.92;100.00;98810.78;5034503;28;20515;-51
2021/11/02 01:03:37;;;;;;;0.30;0.20;;;;;;;5.85;100.00;98811.84;5034299;28;20455;-50
2021/11/02 01:06:04;;;;;;;0.30;0.20;;;;;;;5.81;100.00;98804.97;5034550;28;20471;-50
2021/11/02 01:08:31;;;;;;;0.30;0.20;;;;;;;5.94;100.00;98804.53;5034403;28;20452;-50
2021/11/02 01:10:58;;;;;;;0.30;0.20;;;;;;;6.21;100.00;98799.22;5022823;28;20441;-50
2021/11/02 01:13:27;;;;;;;0.30;0.20;;;;;;;6.05;100.00;98804.16;5032779;28;20501;-50
2021/11/02 01:15:54;;;;;;;0.30;0.20;;;;;;;6.00;100.00;98807.84;5031734;28;20499;-50
2021/11/02 01:18:21;;;;;;;0.30;0.20;;;;;;;5.91;100.00;98803.78;5032667;28;20474;-50
2021/11/02 01:20:48;;;;;;;0.30;0.20;;;;;;;5.77;100.00;98808.63;5033926;28;20545;-50
2021/11/02 01:23:15;;;;;;;0.30;0.20;;;;;;;5.68;100.00;98801.84;5033121;28;21006;-50
2021/11/02 01:25:41;;;;;;;3.20;2.33;;;;;;;5.58;100.00;98800.44;5026391;28;21049;-50
2021/11/02 01:28:08;;;;;;;0.30;0.20;;;;;;;5.98;100.00;98792.09;5034097;28;20474;-50
2021/11/02 01:30:34;;;;;;;0.30;0.20;;;;;;;5.75;100.00;98799.88;5033883;28;20443;-50
2021/11/02 01:33:01;;;;;;;0.30;0.20;;;;;;;5.79;100.00;98799.75;5033597;28;20542;-50
2021/11/02 01:35:29;;;;;;;0.30;0.20;;;;;;;5.77;100.00;98798.94;5033684;28;20792;-50
2021/11/02 01:37:56;;;;;;;0.80;0.80;;;;;;;5.79;100.00;98797.09;5034018;28;20490;-50
2021/11/02 01:40:22;;;;;;;0.30;0.20;;;;;;;5.74;100.00;98799.00;5033641;28;20487;-50
2021/11/02 01:42:50;;;;;;;0.30;0.20;;;;;;;5.87;100.00;98802.09;5033881;28;20513;-50
2021/11/02 01:45:17;;;;;;;1.00;0.97;;;;;;;5.83;100.00;98811.03;5033636;28;20449;-50
2021/11/02 01:47:46;;;;;;;0.30;0.20;;;;;;;6.01;100.00;98807.81;5033493;28;20506;-50
2021/11/02 01:50:14;;;;;;;0.30;0.20;;;;;;;6.02;100.00;98816.56;5032702;28;20497;-50
2021/11/02 01:52:41;;;;;;;3.60;2.10;;;;;;;6.01;100.00;98809.56;5021495;28;20452;-50
2021/11/02 01:55:11;;;;;;;3.30;1.63;;;;;;;6.08;100.00;98811.97;5031608;28;20444;-50
2021/11/02 01:57:39;;;;;;;0.30;0.20;;;;;;;6.19;100.00;98809.81;5033408;28;20471;-50
2021/11/02 02:00:10;;;;;;;0.30;0.20;;;;;;;6.27;100.00;98808.69;5032918;28;20545;-51
2021/11/02 02:03:16;;;;;;;0.40;0.40;;;;;;;6.14;100.00;98803.84;5033451;28;20478;-51
2021/11/02 02:06:08;;;;;;;0.30;0.10;;;;;;;6.28;100.00;98807.75;5033276;28;20538;-51
2021/11/02 02:08:47;;;;;;;0.30;0.20;;;;;;;6.39;100.00;98821.44;5033055;28;20444;-51
2021/11/02 02:11:33;;;;;;;0.30;0.20;;;;;;;6.41;100.00;98820.47;5020050;28;20436;-51
2021/11/02 02:14:32;;;;;;;0.30;0.20;;;;;;;6.54;100.00;98819.13;5033067;28;20444;-51
2021/11/02 02:17:01;;;;;;;0.30;0.20;;;;;;;6.48;100.00;98816.72;5012103;28;20522;-50
2021/11/02 02:19:34;;;;;;;1.27;0.73;;;;;;;6.39;100.00;98814.38;5032855;28;20995;-50
2021/11/02 02:22:19;;;;;;;0.30;0.20;;;;;;;6.74;100.00;98815.78;5033172;28;20491;-50
2021/11/02 02:24:50;;;;;;;0.30;0.20;;;;;;;6.49;100.00;98817.56;5024333;28;20486;-50
2021/11/02 02:27:40;;;;;;;0.30;0.20;;;;;;;6.60;100.00;98812.78;5032602;28;20546;-51
2021/11/02 02:30:13;;;;;;;0.30;0.20;;;;;;;6.58;100.00;98805.81;5032725;28;20494;-50
2021/11/02 02:32:46;;;;;;;0.40;0.30;;;;;;;6.68;100.00;98808.06;5031258;28;20509;-51
2021/11/02 02:35:14;;;;;;;0.30;0.20;;;;;;;6.87;100.00;98810.03;5032710;28;20444;-50
2021/11/02 02:37:42;;;;;;;0.30;0.20;;;;;;;6.75;100.00;98811.34;5030995;28;20472;-50
2021/11/02 02:40:10;;;;;;;0.87;0.83;;;;;;;6.84;100.00;98806.56;5032378;28;20458;-50
2021/11/02 02:42:37;;;;;;;0.40;0.40;;;;;;;6.73;100.00;98814.06;5032597;28;20447;-51
2021/11/02 02:45:06;;;;;;;0.30;0.20;;;;;;;6.81;100.00;98813.75;5032625;28;20502;-50
2021/11/02 02:47:35;;;;;;;0.30;0.20;;;;;;;6.81;100.00;98819.03;5032357;28;20495;-50
2021/11/02 02:50:04;;;;;;;0.30;0.20;;;;;;;6.93;100.00;98817.72;5032222;28;20817;-51
2021/11/02 02:52:31;;;;;;;0.30;0.20;;;;;;;6.91;100.00;98817.78;5032513;28;20506;-50
2021/11/02 02:54:59;;;;;;;0.30;0.20;;;;;;;6.86;100.00;98829.44;5030784;28;20451;-51
2021/11/02 02:57:28;;;;;;;0.30;0.20;;;;;;;6.76;100.00;98815.72;5032118;28;21035;-50
2021/11/02 02:59:56;;;;;;;0.30;0.20;;;;;;;6.82;100.00;98815.47;5032171;28;20909;-50
2021/11/02 03:02:26;;;;;;;0.30;0.20;;;;;;;7.30;100.00;98810.09;5032315;28;20451;-51
2021/11/02 03:04:55;;;;;;;0.30;0.20;;;;;;;6.95;100.00;98806.16;5032211;28;20574;-50
2021/11/02 03:07:23;;;;;;;0.30;0.20;;;;;;;6.96;100.00;98809.66;5032399;28;20495;-51
2021/11/02 03:09:50;;;;;;;0.30;0.20;;;;;;;7.29;100.00;98802.25;5030019;28;20464;-51
2021/11/02 03:12:31;;;;;;;0.30;0.20;;;;;;;7.18;100.00;98805.31;5021472;28;20518;-51
2021/11/02 03:17:45;;;;;;;0.87;0.83;;;;;;;7.07;100.00;98797.78;5028685;28;20479;-50
2021/11/02 03:50:46;;;;;;;0.30;0.20;;;;;;;7.42;100.00;98803.47;5032682;28;20440;-49
2021/11/02 03:58:43;;;;;;;0.40;0.30;;;;;;;7.97;100.00;98796.78;5031430;28;20447;-49
2021/11/02 04:23:34;;;;;;;1.27;0.77;;;;;;;7.61;100.00;98782.44;5035325;28;20451;-49
2021/11/02 04:43:25;;;;;;;0.30;0.20;;;;;;;7.31;100.00;98795.97;5018744;28;21054;-50
2021/11/02 05:48:18;;;;;;;0.30;0.20;;;;;;;6.20;100.00;98784.31;5012594;28;21011;-51
2021/11/02 05:56:13;;;;;;;0.30;0.20;;;;;;;6.17;100.00;98790.56;5009179;28;20464;-50
2021/11/02 05:58:49;;;;;;;0.30;0.20;;;;;;;6.02;100.00;98788.41;5030255;28;20506;-50
2021/11/02 06:06:56;;;;;;;0.30;0.20;;;;;;;6.21;100.00;98789.53;5033288;28;20460;-51
2021/11/02 06:10:01;;;;;;;0.30;0.20;;;;;;;6.12;100.00;98781.94;5033141;28;20447;-50
2021/11/02 06:28:59;;;;;;;0.30;0.20;;;;;;;5.71;100.00;98771.91;5021125;28;20444;-50
2021/11/02 06:31:30;;;;;;;0.30;0.17;;;;;;;5.79;100.00;98770.75;5032358;28;20458;-50
2021/11/02 06:53:44;;;;;;;0.30;0.20;;;;;;;5.78;100.00;98803.28;5033509;28;20439;-51
2021/11/02 07:20:47;;;;;;;0.30;0.20;;;;;;;6.11;100.00;98816.28;5039519;28;20792;-51
2021/11/02 07:29:34;;;;;;;0.30;0.20;;;;;;;6.46;100.00;98808.00;5039284;28;20517;-51
2021/11/02 08:46:15;;;;;;;0.30;0.20;;;;;;;9.10;100.00;98810.34;5035552;28;20577;-49
2021/11/02 08:48:43;;;;;;;0.30;0.20;;;;;;;8.98;100.00;98810.91;5035037;28;20509;-50
2021/11/02 08:51:10;;;;;;;0.30;0.20;;;;;;;8.94;100.00;98796.09;5035074;28;20448;-50
2021/11/02 08:53:37;;;;;;;0.30;0.20;;;;;;;8.97;100.00;98795.94;5031723;28;20797;-50
2021/11/02 08:56:09;;;;;;;0.30;0.30;;;;;;;8.98;100.00;98799.44;5027379;28;20472;-50
2021/11/02 08:58:35;;;;;;;0.30;0.20;;;;;;;8.98;100.00;98797.66;5028590;28;20944;-50
2021/11/02 09:01:03;;;;;;;0.30;0.20;;;;;;;9.11;100.00;98798.81;5005886;28;21004;-50
2021/11/02 09:03:34;;;;;;;0.40;0.30;;;;;;;9.13;100.00;98794.28;5022318;28;20499;-50
2021/11/02 09:06:07;;;;;;;0.30;0.20;;;;;;;9.11;100.00;98795.28;5024297;28;20520;-50
2021/11/02 09:08:50;;;;;;;0.30;0.20;;;;;;;9.18;100.00;98792.28;5018541;28;20480;-51
2021/11/02 09:11:17;;;;;;;0.30;0.20;;;;;;;9.24;100.00;98792.94;5014470;28;20807;-50
2021/11/02 09:13:50;;;;;;;0.30;0.20;;;;;;;9.41;100.00;98796.50;5026354;28;20510;-51
2021/11/02 09:16:18;;;;;;;0.30;0.20;;;;;;;9.39;100.00;98800.16;5026438;28;20467;-50
2021/11/02 09:18:47;;;;;;;0.30;0.20;;;;;;;9.71;100.00;98794.13;5022251;28;20498;-51
2021/11/02 09:21:15;;;;;;;0.30;0.20;;;;;;;9.81;100.00;98797.19;5034458;28;20484;-50
2021/11/02 09:23:47;;;;;;;0.30;0.20;;;;;;;9.76;100.00;98796.59;5028594;28;20492;-50
2021/11/02 09:26:20;;;;;;;0.30;0.20;;;;;;;9.61;100.00;98800.00;5030483;28;20537;-49
2021/11/02 09:28:47;;;;;;;0.30;0.20;;;;;;;9.58;100.00;98790.38;5033213;28;20482;-50
2021/11/02 09:31:20;;;;;;;15.97;1.33;;;;;;;9.52;100.00;98782.72;5034139;28;20448;-50
2021/11/02 09:33:48;;;;;;;0.30;0.20;;;;;;;9.49;100.00;98783.72;5034339;28;20468;-50
2021/11/02 09:36:20;;;;;;;0.50;0.50;;;;;;;9.47;100.00;98790.91;5032947;28;20478;-49
2021/11/02 09:38:57;;;;;;;0.30;0.20;;;;;;;9.58;100.00;98794.81;5034229;28;20444;-50
2021/11/02 09:41:49;;;;;;;0.30;0.20;;;;;;;9.53;100.00;98789.75;5032539;28;20450;-49
2021/11/02 09:44:53;;;;;;;0.30;0.20;;;;;;;9.68;100.00;98794.28;5033934;28;20460;-49
2021/11/02 09:47:44;;;;;;;0.60;0.60;;;;;;;9.92;100.00;98792.22;4994768;28;20467;-50
2021/11/02 09:50:39;;;;;;;0.30;0.20;;;;;;;9.85;100.00;98788.16;5034242;28;20444;-50
2021/11/02 09:53:44;;;;;;;0.30;0.20;;;;;;;9.87;100.00;98788.06;5034138;28;20937;-49
2021/11/02 09:56:17;;;;;;;0.30;0.20;;;;;;;9.86;100.00;98781.03;5034209;28;20483;-49
2021/11/02 09:59:15;;;;;;;0.30;0.20;;;;;;;9.89;100.00;98784.44;5033804;28;20773;-50
2021/11/02 10:02:00;;;;;;;0.30;0.20;;;;;;;9.88;100.00;98780.06;5033068;28;20502;-50
2021/11/02 10:04:42;;;;;;;0.30;0.20;;;;;;;9.71;100.00;98790.63;5033323;28;20447;-50
2021/11/02 10:07:43;;;;;;;0.30;0.20;;;;;;;9.70;100.00;98786.25;5007540;28;20537;-50
2021/11/02 10:10:10;;;;;;;0.30;0.20;;;;;;;9.74;100.00;98783.41;4997662;28;20507;-50
2021/11/02 10:12:59;;;;;;;0.30;0.20;;;;;;;9.63;100.00;98784.84;5025366;28;20444;-50
2021/11/02 10:15:41;;;;;;;0.30;0.20;;;;;;;9.59;100.00;98777.97;5010112;28;20444;-50
2021/11/02 10:18:31;;;;;;;0.80;0.77;;;;;;;9.61;100.00;98779.63;5027664;28;20824;-50
2021/11/02 10:21:19;;;;;;;0.30;0.20;;;;;;;9.59;100.00;98777.97;5033155;28;20502;-50
2021/11/02 10:24:26;;;;;;;0.30;0.20;;;;;;;9.44;100.00;98788.38;5027937;28;20496;-50
2021/11/02 10:27:17;;;;;;;0.30;0.20;;;;;;;9.52;100.00;98781.84;5010920;28;20480;-50
2021/11/02 10:29:55;;;;;;;0.30;0.20;;;;;;;9.55;100.00;98785.22;5032804;28;20447;-50
2021/11/02 10:32:27;;;;;;;0.60;0.60;;;;;;;9.68;100.00;98777.50;5031849;28;20448;-50
2021/11/02 10:35:02;;;;;;;0.30;0.20;;;;;;;9.65;100.00;98778.53;5032755;28;20452;-50
2021/11/02 10:38:04;;;;;;;0.30;0.20;;;;;;;9.64;100.00;98766.19;5032866;28;20944;-50
2021/11/02 10:40:50;;;;;;;0.30;0.20;;;;;;;9.68;100.00;98777.50;5032891;28;20513;-50
2021/11/02 10:43:47;;;;;;;0.30;0.20;;;;;;;9.66;100.00;98774.09;5032638;28;20527;-50
2021/11/02 10:46:14;;;;;;;0.30;0.20;;;;;;;9.64;100.00;98771.50;5032746;28;20506;-50
2021/11/02 10:48:48;;;;;;;0.30;0.20;;;;;;;9.52;100.00;98777.41;5032432;28;20448;-50
2021/11/02 10:51:42;;;;;;;0.30;0.20;;;;;;;9.49;100.00;98765.16;5032132;28;21003;-50
2021/11/02 10:54:08;;;;;;;0.30;0.20;;;;;;;9.49;100.00;98769.63;5005516;28;20552;-50
2021/11/02 10:57:16;;;;;;;0.30;0.20;;;;;;;9.55;100.00;98768.44;5032515;28;20858;-50
2021/11/02 10:59:47;;;;;;;0.30;0.20;;;;;;;9.65;100.00;98775.88;5031317;28;20501;-49
2021/11/02 11:02:27;;;;;;;0.30;0.20;;;;;;;9.64;100.00;98770.66;5032389;28;20459;-50
2021/11/02 11:04:59;;;;;;;0.40;0.40;;;;;;;9.67;100.00;98781.97;5032296;28;20955;-50
2021/11/02 11:07:28;;;;;;;0.30;0.20;;;;;;;9.60;100.00;98780.56;5032513;28;20476;-49
2021/11/02 11:09:55;;;;;;;0.30;0.20;;;;;;;9.63;100.00;98775.09;5029903;28;20443;-49
2021/11/02 11:12:22;;;;;;;0.30;0.20;;;;;;;9.79;100.00;98776.06;5022012;28;20488;-49
2021/11/02 11:14:53;;;;;;;0.30;0.20;;;;;;;9.90;100.00;98777.31;5032525;28;20505;-49
2021/11/02 11:17:26;;;;;;;0.30;0.20;;;;;;;10.08;100.00;98774.59;5028800;28;20476;-50
2021/11/02 11:20:03;;;;;;;2.20;1.03;;;;;;;9.99;100.00;98780.34;5032497;28;20498;-49
2021/11/02 11:22:37;;;;;;;0.30;0.20;;;;;;;9.96;100.00;98772.53;5032918;28;20494;-49
2021/11/02 11:25:07;;;;;;;0.30;0.20;;;;;;;10.21;100.00;98772.19;5023604;28;20454;-49
2021/11/02 11:27:37;;;;;;;0.30;0.20;;;;;;;10.04;100.00;98775.69;5031869;28;20479;-50
2021/11/02 11:30:08;;;;;;;0.30;0.20;;;;;;;9.95;100.00;98775.28;5032517;28;20452;-49
2021/11/02 11:32:39;;;;;;;0.30;0.20;;;;;;;9.80;100.00;98777.78;5030962;28;20422;-50
2021/11/02 11:35:06;;;;;;;0.30;0.20;;;;;;;9.82;100.00;98775.03;5032086;28;20486;-50
2021/11/02 11:37:38;;;;;;;0.30;0.20;;;;;;;9.80;100.00;98777.78;5032275;28;20542;-50
2021/11/02 11:40:06;;;;;;;0.30;0.20;;;;;;;10.00;100.00;98767.94;5033123;28;20455;-50
2021/11/02 11:42:34;;;;;;;0.30;0.20;;;;;;;9.98;100.00;98773.31;5032031;28;20516;-49
2021/11/02 11:45:12;;;;;;;0.30;0.20;;;;;;;10.01;100.00;98769.69;5032617;28;20482;-49
2021/11/02 11:47:39;;;;;;;0.30;0.20;;;;;;;9.84;100.00;98765.19;5031773;28;20471;-49
2021/11/02 11:50:15;;;;;;;0.30;0.20;;;;;;;9.94;100.00;98768.25;5032561;28;20452;-49
2021/11/02 11:52:50;;;;;;;0.30;0.20;;;;;;;10.06;100.00;98760.53;5032331;28;20425;-50
2021/11/02 11:55:26;;;;;;;0.30;0.20;;;;;;;9.94;100.00;98757.63;5029359;28;20443;-49
2021/11/02 11:58:23;;;;;;;0.40;0.40;;;;;;;9.97;100.00;98768.94;5033284;28;20447;-49
2021/11/02 12:01:14;;;;;;;0.30;0.20;;;;;;;9.86;100.00;98762.47;5005651;28;20471;-49
2021/11/02 12:03:57;;;;;;;0.30;0.20;;;;;;;9.92;100.00;98762.16;5033647;28;20488;-49
2021/11/02 12:06:44;;;;;;;0.30;0.30;;;;;;;9.97;100.00;98758.34;5035723;28;20885;-49
2021/11/02 12:09:21;;;;;;;0.30;0.20;;;;;;;10.02;100.00;98758.97;5035992;28;20459;-49
2021/11/02 12:11:49;;;;;;;0.93;0.90;;;;;;;9.90;100.00;98756.94;5021383;28;20480;-49
2021/11/02 12:14:24;;;;;;;0.30;0.20;;;;;;;9.87;100.00;98757.09;5036835;28;20447;-50
2021/11/02 12:16:57;;;;;;;0.30;0.20;;;;;;;9.95;100.00;98751.41;5031627;28;20525;-50
2021/11/02 12:19:30;;;;;;;0.30;0.20;;;;;;;10.21;100.00;98750.06;5035754;28;20454;-49
2021/11/02 12:22:03;;;;;;;0.50;0.50;;;;;;;10.06;100.00;98755.22;5035731;28;20430;-49
2021/11/02 12:24:32;;;;;;;0.30;0.20;;;;;;;10.04;100.00;98749.13;5026328;28;20546;-49
2021/11/02 12:27:11;;;;;;;0.30;0.20;;;;;;;10.02;100.00;98751.03;5035261;28;20487;-49
2021/11/02 12:29:40;;;;;;;0.30;0.20;;;;;;;10.11;100.00;98747.00;5035825;28;20447;-49
2021/11/02 12:32:11;;;;;;;0.30;0.20;;;;;;;10.09;100.00;98748.91;5035688;28;20482;-50
2021/11/02 12:35:09;;;;;;;0.30;0.20;;;;;;;10.10;100.00;98745.28;5035604;28;20451;-49
2021/11/02 12:37:58;;;;;;;0.30;0.20;;;;;;;10.02;100.00;98751.03;5035950;28;20475;-49
2021/11/02 12:40:37;;;;;;;0.30;0.20;;;;;;;10.06;100.00;98752.56;5035438;28;20494;-49
2021/11/02 12:43:25;;;;;;;0.30;0.20;;;;;;;10.09;100.00;98756.84;5035201;28;20491;-49
2021/11/02 12:45:55;;;;;;;0.30;0.20;;;;;;;10.12;100.00;98746.06;5034844;28;20442;-49
2021/11/02 12:48:23;;;;;;;0.30;0.20;;;;;;;10.17;100.00;98741.41;5035236;28;20452;-49
2021/11/02 12:51:17;;;;;;;0.30;0.20;;;;;;;10.30;100.00;98747.81;5011709;28;20531;-50
2021/11/02 12:53:47;;;;;;;0.30;0.20;;;;;;;10.34;100.00;98754.69;5032662;28;20445;-50
2021/11/02 12:56:16;;;;;;;0.30;0.20;;;;;;;10.28;100.00;98754.13;5033688;28;21034;-49
2021/11/02 12:58:46;;;;;;;0.30;0.20;;;;;;;10.25;100.00;98754.28;5035008;28;20795;-49
2021/11/02 13:01:35;;;;;;;0.30;0.20;;;;;;;10.08;100.00;98753.34;5034977;28;20456;-49
2021/11/02 13:04:11;;;;;;;0.30;0.20;;;;;;;10.07;100.00;98746.31;5034786;28;20483;-49
2021/11/02 13:06:45;;;;;;;0.30;0.20;;;;;;;10.29;100.00;98745.25;5034337;28;20861;-49
2021/11/02 13:09:16;;;;;;;0.30;0.20;;;;;;;10.24;100.00;98748.13;5036674;28;20443;-49
2021/11/02 13:11:45;;;;;;;0.30;0.20;;;;;;;10.16;100.00;98749.44;5022653;28;20439;-49
2021/11/02 13:14:15;;;;;;;0.30;0.20;;;;;;;10.18;100.00;98750.22;5034331;28;21007;-49
2021/11/02 13:16:55;;;;;;;0.53;0.53;;;;;;;10.05;100.00;98752.66;5030146;28;21011;-49
2021/11/02 13:19:24;;;;;;;0.30;0.20;;;;;;;10.04;100.00;98750.94;5034197;28;20456;-49
2021/11/02 13:21:50;;;;;;;0.30;0.20;;;;;;;10.11;100.00;98749.66;5010405;28;20452;-50
2021/11/02 13:24:21;;;;;;;0.30;0.20;;;;;;;10.10;100.00;98748.81;5026727;28;20528;-51
2021/11/02 13:26:50;;;;;;;0.30;0.20;;;;;;;10.02;100.00;98753.66;5033798;28;20897;-50
2021/11/02 13:29:25;;;;;;;0.30;0.20;;;;;;;10.16;100.00;98752.97;5033915;28;20483;-51
2021/11/02 13:31:54;;;;;;;0.30;0.20;;;;;;;10.16;100.00;98752.97;5034375;28;20475;-50
2021/11/02 13:34:29;;;;;;;0.30;0.20;;;;;;;10.21;100.00;98753.59;5034981;28;20974;-51
2021/11/02 13:37:04;;;;;;;0.30;0.20;;;;;;;10.18;100.00;98743.13;5033859;28;20522;-50
2021/11/02 13:39:57;;;;;;;0.30;0.20;;;;;;;10.29;100.00;98754.06;5033512;28;20443;-50
2021/11/02 13:42:47;;;;;;;0.30;0.20;;;;;;;10.33;100.00;98754.78;5033572;28;20443;-50
2021/11/02 13:45:19;;;;;;;0.30;0.20;;;;;;;10.33;100.00;98758.28;5033663;28;20455;-50
2021/11/02 13:47:46;;;;;;;0.30;0.20;;;;;;;10.33;100.00;98760.94;5033602;28;20929;-50
2021/11/02 13:50:13;;;;;;;0.30;0.20;;;;;;;10.49;100.00;98757.47;5033661;28;20563;-50
2021/11/02 13:52:41;;;;;;;0.30;0.20;;;;;;;10.33;100.00;98760.09;5033329;28;20451;-50
2021/11/02 13:55:09;;;;;;;0.30;0.20;;;;;;;10.22;100.00;98760.63;5031892;28;20479;-50
2021/11/02 13:57:36;;;;;;;0.30;0.20;;;;;;;10.07;100.00;98761.38;5033454;28;20475;-50
2021/11/02 14:00:06;;;;;;;0.30;0.20;;;;;;;10.30;100.00;98763.75;5033332;28;20525;-50
2021/11/02 14:02:37;;;;;;;0.30;0.20;;;;;;;10.47;100.00;98762.88;5033333;28;20452;-50
2021/11/02 14:05:05;;;;;;;0.30;0.20;;;;;;;10.40;100.00;98766.78;5033012;28;20947;-50
2021/11/02 14:07:32;;;;;;;0.30;0.20;;;;;;;10.43;100.00;98756.00;5033369;28;20992;-50
2021/11/02 14:10:10;;;;;;;0.30;0.20;;;;;;;10.45;100.00;98769.22;5029664;28;20507;-50
2021/11/02 14:12:40;;;;;;;0.30;0.20;;;;;;;10.55;100.00;98767.75;5024751;28;20452;-50
2021/11/02 14:15:10;;;;;;;0.30;0.20;;;;;;;10.66;100.00;98765.41;5032989;28;20471;-50
2021/11/02 14:17:41;;;;;;;0.30;0.20;;;;;;;10.76;100.00;98768.44;5029101;28;20479;-51
2021/11/02 14:20:11;;;;;;;0.30;0.20;;;;;;;11.15;100.00;98768.91;5033134;28;20478;-50
2021/11/02 14:22:47;;;;;;;0.30;0.20;;;;;;;10.91;100.00;98770.25;5033041;28;20506;-50
2021/11/02 14:25:21;;;;;;;0.30;0.20;;;;;;;10.85;100.00;98768.81;5024359;28;20481;-50
2021/11/02 14:27:50;;;;;;;0.30;0.20;;;;;;;10.97;100.00;98776.13;5031592;28;20464;-50
2021/11/02 14:30:32;;;;;;;0.30;0.20;;;;;;;11.04;100.00;98775.75;5032710;28;20514;-50
2021/11/02 14:33:42;;;;;;;0.30;0.20;;;;;;;10.96;100.00;98777.06;5009532;28;20486;-50
2021/11/02 14:36:09;;;;;;;0.30;0.20;;;;;;;10.90;100.00;98781.84;5032530;28;20510;-50
2021/11/02 14:38:46;;;;;;;0.30;0.20;;;;;;;10.87;100.00;98787.31;5032866;28;20505;-50
2021/11/02 14:41:29;;;;;;;0.30;0.20;;;;;;;10.89;100.00;98788.94;5007128;28;20525;-50
2021/11/02 14:44:18;;;;;;;0.30;0.20;;;;;;;10.91;100.00;98772.91;5032484;28;20466;-50
2021/11/02 14:46:46;;;;;;;11.63;1.60;;;;;;;10.79;100.00;98785.06;5032387;28;20502;-51
2021/11/02 14:49:28;;;;;;;0.30;0.20;;;;;;;10.90;100.00;98776.50;5032343;28;20447;-50
2021/11/02 14:51:59;;;;;;;0.30;0.20;;;;;;;10.95;100.00;98780.63;5032409;28;20451;-50
2021/11/02 14:54:30;;;;;;;0.30;0.20;;;;;;;10.88;100.00;98760.66;5030778;28;20444;-50
2021/11/02 14:57:18;;;;;;;0.30;0.20;;;;;;;10.83;100.00;98781.31;5032261;28;20514;-50
2021/11/02 14:59:52;;;;;;;0.30;0.20;;;;;;;10.89;100.00;98766.81;5032714;28;20479;-51
2021/11/02 15:02:40;;;;;;;0.30;0.20;;;;;;;10.89;100.00;98772.16;5032491;28;20455;-50
2021/11/02 15:05:18;;;;;;;0.30;0.20;;;;;;;10.94;100.00;98770.06;5032300;28;20470;-51
2021/11/02 15:07:47;;;;;;;0.30;0.20;;;;;;;10.95;100.00;98769.13;5032421;28;21045;-50
2021/11/02 15:10:16;;;;;;;0.30;0.20;;;;;;;11.03;100.00;98769.59;5027324;28;20473;-50
2021/11/02 15:12:44;;;;;;;0.30;0.20;;;;;;;11.01;100.00;98770.63;5025115;28;20452;-50
2021/11/02 15:15:11;;;;;;;0.30;0.20;;;;;;;10.97;100.00;98772.59;5032263;28;20448;-50
2021/11/02 15:17:38;;;;;;;0.30;0.20;;;;;;;10.97;100.00;98772.59;5028321;28;20525;-50
2021/11/02 15:20:24;;;;;;;0.30;0.20;;;;;;;11.02;100.00;98777.66;5033040;28;20490;-50
2021/11/02 15:22:51;;;;;;;0.30;0.20;;;;;;;10.91;100.00;98773.78;5032298;28;20935;-50
2021/11/02 15:25:18;;;;;;;0.30;0.30;;;;;;;10.85;100.00;98767.94;5023711;28;20857;-50
2021/11/02 15:27:44;;;;;;;0.30;0.20;;;;;;;10.77;100.00;98771.00;5032454;28;21011;-50
2021/11/02 15:30:15;;;;;;;0.30;0.20;;;;;;;10.78;100.00;98782.50;5032053;28;20489;-50
2021/11/02 15:32:45;;;;;;;0.30;0.20;;;;;;;10.81;100.00;98780.50;5031790;28;20997;-50
2021/11/02 15:35:17;;;;;;;0.30;0.20;;;;;;;10.88;100.00;98778.41;5031950;28;20476;-50
2021/11/02 15:37:46;;;;;;;0.30;0.20;;;;;;;10.81;100.00;98782.31;5032472;28;20476;-50
2021/11/02 15:40:25;;;;;;;0.30;0.20;;;;;;;10.84;100.00;98782.19;5036248;28;20979;-50
2021/11/02 15:42:56;;;;;;;0.30;0.20;;;;;;;10.85;100.00;98776.78;5035922;28;20498;-50
2021/11/02 15:45:39;;;;;;;0.30;0.20;;;;;;;10.84;100.00;98785.69;5022610;28;20545;-50
2021/11/02 15:48:07;;;;;;;0.30;0.20;;;;;;;10.89;100.00;98777.47;5036091;28;20418;-50
2021/11/02 15:50:35;;;;;;;0.30;0.20;;;;;;;10.85;100.00;98778.56;5036137;28;20513;-50
2021/11/02 15:53:09;;;;;;;0.30;0.20;;;;;;;10.78;100.00;98782.50;5036013;28;20451;-50
2021/11/02 15:55:36;;;;;;;0.30;0.20;;;;;;;10.80;100.00;98784.13;5027025;28;20880;-49
2021/11/02 15:58:06;;;;;;;0.30;0.20;;;;;;;10.67;100.00;98778.59;5027150;28;20461;-50
2021/11/02 16:00:34;;;;;;;0.30;0.20;;;;;;;10.71;100.00;98779.31;5034472;28;20483;-50
2021/11/02 16:03:01;;;;;;;0.30;0.20;;;;;;;10.69;100.00;98783.84;5035626;28;20960;-50
2021/11/02 16:05:33;;;;;;;0.30;0.20;;;;;;;10.64;100.00;98789.41;5035122;28;20491;-49
2021/11/02 16:08:13;;;;;;;0.30;0.20;;;;;;;10.57;100.00;98790.69;5035370;28;20451;-50
2021/11/02 16:10:40;;;;;;;0.30;0.20;;;;;;;10.63;100.00;98792.13;5026923;28;20440;-49
2021/11/02 16:13:08;;;;;;;0.30;0.20;;;;;;;10.68;100.00;98796.25;5031127;28;20448;-50
2021/11/02 16:15:38;;;;;;;0.30;0.20;;;;;;;10.70;100.00;98792.69;5035199;28;20507;-49
2021/11/02 16:18:14;;;;;;;0.30;0.20;;;;;;;10.65;100.00;98782.28;5028534;28;20452;-50
2021/11/02 16:20:42;;;;;;;0.30;0.20;;;;;;;10.69;100.00;98786.53;5035140;28;20455;-50
2021/11/02 16:23:11;;;;;;;0.30;0.20;;;;;;;10.64;100.00;98781.44;5034921;28;20498;-49
2021/11/02 16:25:55;;;;;;;0.30;0.20;;;;;;;10.66;100.00;98781.34;5028919;28;20942;-50
2021/11/02 16:28:27;;;;;;;0.30;0.20;;;;;;;10.54;100.00;98785.50;5034940;28;20486;-50
2021/11/02 16:30:59;;;;;;;0.30;0.20;;;;;;;10.59;100.00;98790.59;5034618;28;20455;-50
2021/11/02 16:33:32;;;;;;;0.30;0.20;;;;;;;10.48;100.00;98791.16;5035098;28;20418;-50
2021/11/02 16:36:21;;;;;;;0.30;0.20;;;;;;;10.39;100.00;98795.13;5034713;28;20482;-50
2021/11/02 16:38:49;;;;;;;0.30;0.20;;;;;;;10.36;100.00;98799.75;5034640;28;20502;-49
2021/11/02 16:41:25;;;;;;;0.30;0.20;;;;;;;10.30;100.00;98798.28;5034570;28;20478;-49
2021/11/02 16:44:00;;;;;;;0.30;0.20;;;;;;;10.21;100.00;98803.16;5034710;28;20517;-50
2021/11/02 16:46:33;;;;;;;0.30;0.20;;;;;;;10.17;100.00;98804.28;5034450;28;20968;-50
2021/11/02 16:49:04;;;;;;;0.30;0.20;;;;;;;10.17;100.00;98804.28;5034231;28;20470;-50
2021/11/02 16:51:52;;;;;;;0.30;0.20;;;;;;;10.11;100.00;98802.75;5033790;28;20430;-50
2021/11/02 16:54:21;;;;;;;0.30;0.20;;;;;;;9.97;100.00;98803.47;5012490;28;20447;-50